sensor_id;sensor_type;location;lat;lon;timestamp;temperature;humidity
33645;DHT22;19986;48.190;16.366;2023-07-29T00:01:31;25.60;96.70
33645;DHT22;19986;48.190;16.366;2023-07-29T00:03:57;25.60;96.70
33645;DHT22;19986;48.190;16.366;2023-07-29T00:06:24;25.60;96.80
33645;DHT22;19986;48.190;16.366;2023-07-29T00:08:49;25.60;96.90
33645;DHT22;19986;48.190;16.366;2023-07-29T00:11:15;25.60;97.00
33645;DHT22;19986;48.190;16.366;2023-07-29T00:13:41;25.60;97.00
33645;DHT22;19986;48.190;16.366;2023-07-29T00:16:07;25.50;97.00
33645;DHT22;19986;48.190;16.366;2023-07-29T00:18:33;25.60;96.90
33645;DHT22;19986;48.190;16.366;2023-07-29T00:20:59;25.60;96.90
33645;DHT22;19986;48.190;16.366;2023-07-29T00:23:25;25.70;97.10
33645;DHT22;19986;48.190;16.366;2023-07-29T00:25:51;25.70;97.10
33645;DHT22;19986;48.190;16.366;2023-07-29T00:28:16;25.60;97.10
33645;DHT22;19986;48.190;16.366;2023-07-29T00:30:42;25.60;97.20
33645;DHT22;19986;48.190;16.366;2023-07-29T00:33:08;25.60;97.20
33645;DHT22;19986;48.190;16.366;2023-07-29T00:35:34;25.50;97.30
33645;DHT22;19986;48.190;16.366;2023-07-29T00:38:00;25.60;97.40
33645;DHT22;19986;48.190;16.366;2023-07-29T00:40:28;25.50;97.50
33645;DHT22;19986;48.190;16.366;2023-07-29T00:42:54;25.50;97.60
33645;DHT22;19986;48.190;16.366;2023-07-29T00:45:20;25.50;97.50
33645;DHT22;19986;48.190;16.366;2023-07-29T00:47:47;25.50;97.70
33645;DHT22;19986;48.190;16.366;2023-07-29T00:50:14;25.50;97.70
33645;DHT22;19986;48.190;16.366;2023-07-29T00:52:41;25.50;97.80
33645;DHT22;19986;48.190;16.366;2023-07-29T00:55:07;25.50;97.70
33645;DHT22;19986;48.190;16.366;2023-07-29T00:57:33;25.50;97.70
33645;DHT22;19986;48.190;16.366;2023-07-29T01:00:01;25.60;97.80
33645;DHT22;19986;48.190;16.366;2023-07-29T01:02:27;25.50;97.80
33645;DHT22;19986;48.190;16.366;2023-07-29T01:04:56;25.60;97.90
33645;DHT22;19986;48.190;16.366;2023-07-29T01:10:10;25.60;97.90
33645;DHT22;19986;48.190;16.366;2023-07-29T01:13:12;25.60;97.90
33645;DHT22;19986;48.190;16.366;2023-07-29T01:15:55;25.60;97.90
33645;DHT22;19986;48.190;16.366;2023-07-29T01:18:31;25.60;98.00
33645;DHT22;19986;48.190;16.366;2023-07-29T01:21:03;25.60;98.10
33645;DHT22;19986;48.190;16.366;2023-07-29T01:23:36;25.50;98.00
33645;DHT22;19986;48.190;16.366;2023-07-29T01:26:03;25.50;98.10
33645;DHT22;19986;48.190;16.366;2023-07-29T01:28:29;25.50;98.20
33645;DHT22;19986;48.190;16.366;2023-07-29T01:31:07;25.50;98.30
33645;DHT22;19986;48.190;16.366;2023-07-29T01:34:02;25.40;98.40
33645;DHT22;19986;48.190;16.366;2023-07-29T01:36:28;25.40;98.40
33645;DHT22;19986;48.190;16.366;2023-07-29T01:38:55;25.40;98.50
33645;DHT22;19986;48.190;16.366;2023-07-29T01:41:22;25.30;98.60
33645;DHT22;19986;48.190;16.366;2023-07-29T01:43:50;25.30;98.70
33645;DHT22;19986;48.190;16.366;2023-07-29T01:46:17;25.20;98.80
33645;DHT22;19986;48.190;16.366;2023-07-29T01:48:44;25.30;99.00
33645;DHT22;19986;48.190;16.366;2023-07-29T01:51:12;25.20;99.20
33645;DHT22;19986;48.190;16.366;2023-07-29T01:53:38;25.10;99.30
33645;DHT22;19986;48.190;16.366;2023-07-29T01:56:04;25.10;99.30
33645;DHT22;19986;48.190;16.366;2023-07-29T01:58:30;25.20;99.50
33645;DHT22;19986;48.190;16.366;2023-07-29T02:00:56;25.10;99.50
33645;DHT22;19986;48.190;16.366;2023-07-29T02:03:23;25.20;99.80
33645;DHT22;19986;48.190;16.366;2023-07-29T02:05:49;25.10;99.80
33645;DHT22;19986;48.190;16.366;2023-07-29T02:08:16;25.10;99.90
33645;DHT22;19986;48.190;16.366;2023-07-29T02:10:42;25.10;99.90
33645;DHT22;19986;48.190;16.366;2023-07-29T02:13:12;25.10;99.90
33645;DHT22;19986;48.190;16.366;2023-07-29T02:15:38;25.10;99.60
33645;DHT22;19986;48.190;16.366;2023-07-29T02:18:05;25.10;99.50
33645;DHT22;19986;48.190;16.366;2023-07-29T02:20:32;25.10;99.30
33645;DHT22;19986;48.190;16.366;2023-07-29T02:22:59;25.10;99.20
33645;DHT22;19986;48.190;16.366;2023-07-29T02:25:25;25.10;99.00
33645;DHT22;19986;48.190;16.366;2023-07-29T02:27:51;25.10;99.00
33645;DHT22;19986;48.190;16.366;2023-07-29T02:30:18;25.10;99.00
33645;DHT22;19986;48.190;16.366;2023-07-29T02:32:44;25.10;99.00
33645;DHT22;19986;48.190;16.366;2023-07-29T02:35:12;25.10;98.90
33645;DHT22;19986;48.190;16.366;2023-07-29T02:37:38;25.10;98.80
33645;DHT22;19986;48.190;16.366;2023-07-29T02:40:05;25.10;98.60
33645;DHT22;19986;48.190;16.366;2023-07-29T02:42:31;25.10;98.60
33645;DHT22;19986;48.190;16.366;2023-07-29T02:44:57;25.10;98.70
33645;DHT22;19986;48.190;16.366;2023-07-29T02:47:24;25.10;98.70
33645;DHT22;19986;48.190;16.366;2023-07-29T02:49:50;25.10;98.70
33645;DHT22;19986;48.190;16.366;2023-07-29T02:52:16;25.20;98.80
33645;DHT22;19986;48.190;16.366;2023-07-29T02:54:41;25.10;98.70
33645;DHT22;19986;48.190;16.366;2023-07-29T02:57:07;25.10;98.50
33645;DHT22;19986;48.190;16.366;2023-07-29T02:59:33;25.10;98.00
33645;DHT22;19986;48.190;16.366;2023-07-29T03:01:59;25.10;97.50
33645;DHT22;19986;48.190;16.366;2023-07-29T03:04:25;25.10;97.40
33645;DHT22;19986;48.190;16.366;2023-07-29T03:06:50;25.10;97.20
33645;DHT22;19986;48.190;16.366;2023-07-29T03:09:17;25.10;97.10
33645;DHT22;19986;48.190;16.366;2023-07-29T03:11:42;25.10;96.90
33645;DHT22;19986;48.190;16.366;2023-07-29T03:14:08;25.10;96.90
33645;DHT22;19986;48.190;16.366;2023-07-29T03:16:34;25.00;96.80
33645;DHT22;19986;48.190;16.366;2023-07-29T03:19:00;25.10;96.70
33645;DHT22;19986;48.190;16.366;2023-07-29T03:21:26;25.00;96.60
33645;DHT22;19986;48.190;16.366;2023-07-29T03:23:51;25.00;96.50
33645;DHT22;19986;48.190;16.366;2023-07-29T03:26:17;25.10;96.60
33645;DHT22;19986;48.190;16.366;2023-07-29T03:28:43;25.10;96.60
33645;DHT22;19986;48.190;16.366;2023-07-29T03:31:10;25.10;96.40
33645;DHT22;19986;48.190;16.366;2023-07-29T03:33:36;25.10;96.40
33645;DHT22;19986;48.190;16.366;2023-07-29T03:36:02;25.10;96.40
33645;DHT22;19986;48.190;16.366;2023-07-29T03:38:28;25.10;96.40
33645;DHT22;19986;48.190;16.366;2023-07-29T03:40:53;25.10;96.40
33645;DHT22;19986;48.190;16.366;2023-07-29T03:43:19;25.10;96.40
33645;DHT22;19986;48.190;16.366;2023-07-29T03:45:45;25.10;96.60
33645;DHT22;19986;48.190;16.366;2023-07-29T03:48:11;25.10;96.70
33645;DHT22;19986;48.190;16.366;2023-07-29T03:50:37;25.00;96.80
33645;DHT22;19986;48.190;16.366;2023-07-29T03:53:04;25.00;96.90
33645;DHT22;19986;48.190;16.366;2023-07-29T03:55:30;25.00;97.00
33645;DHT22;19986;48.190;16.366;2023-07-29T03:57:57;25.00;97.10
33645;DHT22;19986;48.190;16.366;2023-07-29T04:00:23;25.00;97.10
33645;DHT22;19986;48.190;16.366;2023-07-29T04:02:49;25.00;97.20
33645;DHT22;19986;48.190;16.366;2023-07-29T04:05:16;25.10;97.10
33645;DHT22;19986;48.190;16.366;2023-07-29T04:07:42;25.10;97.20
33645;DHT22;19986;48.190;16.366;2023-07-29T04:10:08;25.10;97.20
33645;DHT22;19986;48.190;16.366;2023-07-29T04:12:34;25.10;97.30
33645;DHT22;19986;48.190;16.366;2023-07-29T04:14:59;25.10;97.30
33645;DHT22;19986;48.190;16.366;2023-07-29T04:17:25;25.00;97.40
33645;DHT22;19986;48.190;16.366;2023-07-29T04:19:51;25.00;97.40
33645;DHT22;19986;48.190;16.366;2023-07-29T04:22:17;25.00;97.50
33645;DHT22;19986;48.190;16.366;2023-07-29T04:24:43;25.00;97.60
33645;DHT22;19986;48.190;16.366;2023-07-29T04:27:09;25.00;97.70
33645;DHT22;19986;48.190;16.366;2023-07-29T04:29:35;25.00;97.70
33645;DHT22;19986;48.190;16.366;2023-07-29T04:32:05;25.10;97.70
33645;DHT22;19986;48.190;16.366;2023-07-29T04:34:31;25.00;97.70
33645;DHT22;19986;48.190;16.366;2023-07-29T04:36:57;25.00;97.80
33645;DHT22;19986;48.190;16.366;2023-07-29T04:39:23;24.90;97.80
33645;DHT22;19986;48.190;16.366;2023-07-29T04:41:49;24.90;97.90
33645;DHT22;19986;48.190;16.366;2023-07-29T04:44:15;24.90;97.90
33645;DHT22;19986;48.190;16.366;2023-07-29T04:46:41;24.90;97.90
33645;DHT22;19986;48.190;16.366;2023-07-29T04:49:07;25.00;98.00
33645;DHT22;19986;48.190;16.366;2023-07-29T04:51:33;24.90;98.00
33645;DHT22;19986;48.190;16.366;2023-07-29T04:53:59;24.90;98.10
33645;DHT22;19986;48.190;16.366;2023-07-29T04:56:25;25.00;98.00
33645;DHT22;19986;48.190;16.366;2023-07-29T04:58:51;25.00;97.90
33645;DHT22;19986;48.190;16.366;2023-07-29T05:01:17;25.10;97.90
33645;DHT22;19986;48.190;16.366;2023-07-29T05:03:42;25.10;97.80
33645;DHT22;19986;48.190;16.366;2023-07-29T05:06:08;25.10;97.60
33645;DHT22;19986;48.190;16.366;2023-07-29T05:08:34;25.20;97.50
33645;DHT22;19986;48.190;16.366;2023-07-29T05:11:00;25.20;97.40
33645;DHT22;19986;48.190;16.366;2023-07-29T05:13:26;25.30;97.30
33645;DHT22;19986;48.190;16.366;2023-07-29T05:15:52;25.40;97.30
33645;DHT22;19986;48.190;16.366;2023-07-29T05:18:18;25.50;97.20
33645;DHT22;19986;48.190;16.366;2023-07-29T05:20:44;25.60;96.90
33645;DHT22;19986;48.190;16.366;2023-07-29T05:23:09;25.70;96.80
33645;DHT22;19986;48.190;16.366;2023-07-29T05:25:35;25.70;96.70
33645;DHT22;19986;48.190;16.366;2023-07-29T05:28:02;25.70;96.60
33645;DHT22;19986;48.190;16.366;2023-07-29T05:30:28;25.80;96.50
33645;DHT22;19986;48.190;16.366;2023-07-29T05:33:00;25.80;96.50
33645;DHT22;19986;48.190;16.366;2023-07-29T05:35:25;25.80;96.50
33645;DHT22;19986;48.190;16.366;2023-07-29T05:37:51;25.90;96.50
33645;DHT22;19986;48.190;16.366;2023-07-29T05:40:17;26.00;96.40
33645;DHT22;19986;48.190;16.366;2023-07-29T05:42:43;26.10;96.30
33645;DHT22;19986;48.190;16.366;2023-07-29T05:45:10;26.10;96.30
33645;DHT22;19986;48.190;16.366;2023-07-29T05:47:37;26.20;96.20
33645;DHT22;19986;48.190;16.366;2023-07-29T05:50:03;26.20;96.20
33645;DHT22;19986;48.190;16.366;2023-07-29T05:52:33;26.30;96.10
33645;DHT22;19986;48.190;16.366;2023-07-29T05:54:59;26.30;96.20
33645;DHT22;19986;48.190;16.366;2023-07-29T05:57:25;26.30;96.20
33645;DHT22;19986;48.190;16.366;2023-07-29T05:59:50;26.30;96.30
33645;DHT22;19986;48.190;16.366;2023-07-29T06:02:16;26.30;96.10
33645;DHT22;19986;48.190;16.366;2023-07-29T06:04:42;26.40;96.10
33645;DHT22;19986;48.190;16.366;2023-07-29T06:07:08;26.40;96.00
33645;DHT22;19986;48.190;16.366;2023-07-29T06:09:34;26.50;96.20
33645;DHT22;19986;48.190;16.366;2023-07-29T06:12:00;26.50;96.00
33645;DHT22;19986;48.190;16.366;2023-07-29T06:14:26;26.50;96.10
33645;DHT22;19986;48.190;16.366;2023-07-29T06:16:52;26.60;96.00
33645;DHT22;19986;48.190;16.366;2023-07-29T06:19:19;26.60;96.00
33645;DHT22;19986;48.190;16.366;2023-07-29T06:21:45;26.70;95.80
33645;DHT22;19986;48.190;16.366;2023-07-29T06:24:11;26.60;96.00
33645;DHT22;19986;48.190;16.366;2023-07-29T06:26:37;26.50;96.10
33645;DHT22;19986;48.190;16.366;2023-07-29T06:29:03;26.50;96.20
33645;DHT22;19986;48.190;16.366;2023-07-29T06:31:29;26.50;96.20
33645;DHT22;19986;48.190;16.366;2023-07-29T06:33:55;26.60;96.20
33645;DHT22;19986;48.190;16.366;2023-07-29T06:36:21;26.50;96.10
33645;DHT22;19986;48.190;16.366;2023-07-29T06:38:47;26.50;96.10
33645;DHT22;19986;48.190;16.366;2023-07-29T06:41:13;26.60;96.00
33645;DHT22;19986;48.190;16.366;2023-07-29T06:43:42;26.60;96.10
33645;DHT22;19986;48.190;16.366;2023-07-29T06:46:08;26.60;96.10
33645;DHT22;19986;48.190;16.366;2023-07-29T06:48:34;26.60;96.00
33645;DHT22;19986;48.190;16.366;2023-07-29T06:50:59;26.60;96.00
33645;DHT22;19986;48.190;16.366;2023-07-29T06:53:29;26.70;96.00
33645;DHT22;19986;48.190;16.366;2023-07-29T06:55:55;26.90;96.00
33645;DHT22;19986;48.190;16.366;2023-07-29T06:58:21;27.20;95.80
33645;DHT22;19986;48.190;16.366;2023-07-29T07:00:47;27.50;95.30
33645;DHT22;19986;48.190;16.366;2023-07-29T07:03:13;27.70;95.10
33645;DHT22;19986;48.190;16.366;2023-07-29T07:05:38;27.90;94.70
33645;DHT22;19986;48.190;16.366;2023-07-29T07:08:04;28.00;94.50
33645;DHT22;19986;48.190;16.366;2023-07-29T07:10:30;27.90;94.40
33645;DHT22;19986;48.190;16.366;2023-07-29T07:12:56;27.90;94.50
33645;DHT22;19986;48.190;16.366;2023-07-29T07:15:22;27.90;94.50
33645;DHT22;19986;48.190;16.366;2023-07-29T07:17:47;27.90;94.40
33645;DHT22;19986;48.190;16.366;2023-07-29T07:20:13;28.00;94.50
33645;DHT22;19986;48.190;16.366;2023-07-29T07:22:39;28.10;94.50
33645;DHT22;19986;48.190;16.366;2023-07-29T07:25:05;28.20;94.20
33645;DHT22;19986;48.190;16.366;2023-07-29T07:27:31;28.30;94.30
33645;DHT22;19986;48.190;16.366;2023-07-29T07:29:57;28.60;94.00
33645;DHT22;19986;48.190;16.366;2023-07-29T07:32:23;28.70;93.80
33645;DHT22;19986;48.190;16.366;2023-07-29T07:34:48;28.70;93.60
33645;DHT22;19986;48.190;16.366;2023-07-29T07:37:14;28.60;93.70
33645;DHT22;19986;48.190;16.366;2023-07-29T07:39:40;28.60;93.60
33645;DHT22;19986;48.190;16.366;2023-07-29T07:42:06;28.60;94.00
33645;DHT22;19986;48.190;16.366;2023-07-29T07:44:32;28.80;93.60
33645;DHT22;19986;48.190;16.366;2023-07-29T07:46:58;28.80;93.30
33645;DHT22;19986;48.190;16.366;2023-07-29T07:49:24;28.80;93.70
33645;DHT22;19986;48.190;16.366;2023-07-29T07:51:49;28.80;93.30
33645;DHT22;19986;48.190;16.366;2023-07-29T07:54:15;28.60;93.20
33645;DHT22;19986;48.190;16.366;2023-07-29T07:56:42;28.50;93.30
33645;DHT22;19986;48.190;16.366;2023-07-29T07:59:08;28.30;93.30
33645;DHT22;19986;48.190;16.366;2023-07-29T08:01:38;28.20;93.50
33645;DHT22;19986;48.190;16.366;2023-07-29T08:04:05;28.30;93.30
33645;DHT22;19986;48.190;16.366;2023-07-29T08:06:31;28.30;93.30
33645;DHT22;19986;48.190;16.366;2023-07-29T08:08:58;28.30;93.30
33645;DHT22;19986;48.190;16.366;2023-07-29T08:11:25;28.40;93.30
33645;DHT22;19986;48.190;16.366;2023-07-29T08:13:51;28.60;93.10
33645;DHT22;19986;48.190;16.366;2023-07-29T08:16:17;28.70;92.90
33645;DHT22;19986;48.190;16.366;2023-07-29T08:18:43;28.70;92.90
33645;DHT22;19986;48.190;16.366;2023-07-29T08:21:09;28.80;92.90
33645;DHT22;19986;48.190;16.366;2023-07-29T08:23:35;28.80;92.70
33645;DHT22;19986;48.190;16.366;2023-07-29T08:26:03;28.60;92.60
33645;DHT22;19986;48.190;16.366;2023-07-29T08:28:35;28.70;92.60
33645;DHT22;19986;48.190;16.366;2023-07-29T08:31:02;28.70;92.40
33645;DHT22;19986;48.190;16.366;2023-07-29T08:33:28;28.90;92.30
33645;DHT22;19986;48.190;16.366;2023-07-29T08:35:54;29.00;92.20
33645;DHT22;19986;48.190;16.366;2023-07-29T08:38:21;28.90;91.90
33645;DHT22;19986;48.190;16.366;2023-07-29T08:41:13;28.90;91.70
33645;DHT22;19986;48.190;16.366;2023-07-29T08:44:06;28.80;91.80
33645;DHT22;19986;48.190;16.366;2023-07-29T08:46:29;29.00;92.00
33645;DHT22;19986;48.190;16.366;2023-07-29T08:48:55;29.40;91.30
33645;DHT22;19986;48.190;16.366;2023-07-29T08:51:21;29.60;91.00
33645;DHT22;19986;48.190;16.366;2023-07-29T08:53:49;29.60;90.70
33645;DHT22;19986;48.190;16.366;2023-07-29T08:56:15;29.40;90.80
33645;DHT22;19986;48.190;16.366;2023-07-29T08:58:43;29.30;91.00
33645;DHT22;19986;48.190;16.366;2023-07-29T09:01:09;29.10;91.00
33645;DHT22;19986;48.190;16.366;2023-07-29T09:03:34;29.00;91.10
33645;DHT22;19986;48.190;16.366;2023-07-29T09:06:02;29.00;91.20
33645;DHT22;19986;48.190;16.366;2023-07-29T09:08:28;29.10;91.40
33645;DHT22;19986;48.190;16.366;2023-07-29T09:10:55;29.10;91.50
33645;DHT22;19986;48.190;16.366;2023-07-29T09:13:25;29.20;91.60
33645;DHT22;19986;48.190;16.366;2023-07-29T09:15:54;29.40;91.60
33645;DHT22;19986;48.190;16.366;2023-07-29T09:18:21;29.50;91.50
33645;DHT22;19986;48.190;16.366;2023-07-29T09:20:48;29.80;91.50
33645;DHT22;19986;48.190;16.366;2023-07-29T09:23:15;30.60;91.20
33645;DHT22;19986;48.190;16.366;2023-07-29T09:25:42;32.20;89.70
33645;DHT22;19986;48.190;16.366;2023-07-29T09:28:12;34.00;87.00
33645;DHT22;19986;48.190;16.366;2023-07-29T09:30:40;35.70;82.40
33645;DHT22;19986;48.190;16.366;2023-07-29T09:33:10;37.40;79.30
33645;DHT22;19986;48.190;16.366;2023-07-29T09:35:38;38.80;75.70
33645;DHT22;19986;48.190;16.366;2023-07-29T09:38:04;39.80;73.40
33645;DHT22;19986;48.190;16.366;2023-07-29T09:40:35;40.70;70.80
33645;DHT22;19986;48.190;16.366;2023-07-29T09:43:02;41.60;69.40
33645;DHT22;19986;48.190;16.366;2023-07-29T09:45:29;42.30;67.60
33645;DHT22;19986;48.190;16.366;2023-07-29T09:47:57;42.90;65.60
33645;DHT22;19986;48.190;16.366;2023-07-29T09:50:25;42.70;64.80
33645;DHT22;19986;48.190;16.366;2023-07-29T09:52:52;41.90;65.30
33645;DHT22;19986;48.190;16.366;2023-07-29T09:55:19;41.90;65.70
33645;DHT22;19986;48.190;16.366;2023-07-29T09:57:45;42.70;65.10
33645;DHT22;19986;48.190;16.366;2023-07-29T10:00:12;43.40;63.80
33645;DHT22;19986;48.190;16.366;2023-07-29T10:02:39;43.90;62.70
33645;DHT22;19986;48.190;16.366;2023-07-29T10:05:09;44.40;61.70
33645;DHT22;19986;48.190;16.366;2023-07-29T10:07:37;44.60;60.90
33645;DHT22;19986;48.190;16.366;2023-07-29T10:10:04;44.90;60.00
33645;DHT22;19986;48.190;16.366;2023-07-29T10:12:32;45.10;59.70
33645;DHT22;19986;48.190;16.366;2023-07-29T10:15:04;45.40;59.40
33645;DHT22;19986;48.190;16.366;2023-07-29T10:17:33;45.90;58.90
33645;DHT22;19986;48.190;16.366;2023-07-29T10:20:00;46.00;58.70
33645;DHT22;19986;48.190;16.366;2023-07-29T10:22:38;45.60;57.70
33645;DHT22;19986;48.190;16.366;2023-07-29T10:25:09;45.20;58.00
33645;DHT22;19986;48.190;16.366;2023-07-29T10:27:52;45.00;58.20
33645;DHT22;19986;48.190;16.366;2023-07-29T10:30:19;44.60;58.10
33645;DHT22;19986;48.190;16.366;2023-07-29T10:32:45;43.50;59.00
33645;DHT22;19986;48.190;16.366;2023-07-29T10:35:13;43.40;59.20
33645;DHT22;19986;48.190;16.366;2023-07-29T10:37:39;43.90;58.70
33645;DHT22;19986;48.190;16.366;2023-07-29T10:40:07;44.00;58.20
33645;DHT22;19986;48.190;16.366;2023-07-29T10:42:33;44.00;58.30
33645;DHT22;19986;48.190;16.366;2023-07-29T10:45:02;43.90;58.10
33645;DHT22;19986;48.190;16.366;2023-07-29T10:47:42;44.20;57.80
33645;DHT22;19986;48.190;16.366;2023-07-29T10:50:18;44.20;57.30
33645;DHT22;19986;48.190;16.366;2023-07-29T10:52:49;44.20;57.30
33645;DHT22;19986;48.190;16.366;2023-07-29T10:55:26;44.20;56.90
33645;DHT22;19986;48.190;16.366;2023-07-29T10:58:13;44.10;56.80
33645;DHT22;19986;48.190;16.366;2023-07-29T11:00:44;43.30;57.20
33645;DHT22;19986;48.190;16.366;2023-07-29T11:03:12;42.20;58.40
33645;DHT22;19986;48.190;16.366;2023-07-29T11:05:45;41.40;59.60
33645;DHT22;19986;48.190;16.366;2023-07-29T11:10:43;40.60;60.30
33645;DHT22;19986;48.190;16.366;2023-07-29T11:13:10;40.80;61.10
33645;DHT22;19986;48.190;16.366;2023-07-29T11:15:39;41.40;59.90
33645;DHT22;19986;48.190;16.366;2023-07-29T11:18:05;41.30;59.60
33645;DHT22;19986;48.190;16.366;2023-07-29T11:20:33;40.40;60.00
33645;DHT22;19986;48.190;16.366;2023-07-29T11:23:01;39.20;61.30
33645;DHT22;19986;48.190;16.366;2023-07-29T11:25:28;38.40;62.80
33645;DHT22;19986;48.190;16.366;2023-07-29T11:27:59;37.90;63.90
33645;DHT22;19986;48.190;16.366;2023-07-29T11:30:25;37.70;64.60
33645;DHT22;19986;48.190;16.366;2023-07-29T11:32:55;37.70;64.80
33645;DHT22;19986;48.190;16.366;2023-07-29T11:35:21;37.30;65.50
33645;DHT22;19986;48.190;16.366;2023-07-29T11:37:49;36.90;66.10
33645;DHT22;19986;48.190;16.366;2023-07-29T11:40:16;36.40;66.80
33645;DHT22;19986;48.190;16.366;2023-07-29T11:42:42;36.70;67.40
33645;DHT22;19986;48.190;16.366;2023-07-29T11:45:09;37.20;66.30
33645;DHT22;19986;48.190;16.366;2023-07-29T11:47:36;37.00;66.60
33645;DHT22;19986;48.190;16.366;2023-07-29T11:50:07;36.70;66.90
33645;DHT22;19986;48.190;16.366;2023-07-29T11:52:38;36.20;68.60
33645;DHT22;19986;48.190;16.366;2023-07-29T11:55:05;35.60;68.80
33645;DHT22;19986;48.190;16.366;2023-07-29T11:57:37;35.60;69.50
33645;DHT22;19986;48.190;16.366;2023-07-29T12:00:07;35.50;69.40
33645;DHT22;19986;48.190;16.366;2023-07-29T12:02:35;35.00;69.20
33645;DHT22;19986;48.190;16.366;2023-07-29T12:05:05;34.70;69.60
33645;DHT22;19986;48.190;16.366;2023-07-29T12:07:31;34.50;70.00
33645;DHT22;19986;48.190;16.366;2023-07-29T12:09:59;34.30;70.60
33645;DHT22;19986;48.190;16.366;2023-07-29T12:12:25;34.10;70.60
33645;DHT22;19986;48.190;16.366;2023-07-29T12:14:51;34.10;70.80
33645;DHT22;19986;48.190;16.366;2023-07-29T12:17:18;34.50;71.10
33645;DHT22;19986;48.190;16.366;2023-07-29T12:19:44;35.50;69.40
33645;DHT22;19986;48.190;16.366;2023-07-29T12:22:10;35.70;68.20
33645;DHT22;19986;48.190;16.366;2023-07-29T12:24:38;35.60;68.50
33645;DHT22;19986;48.190;16.366;2023-07-29T12:27:05;35.30;68.80
33645;DHT22;19986;48.190;16.366;2023-07-29T12:29:31;35.00;69.70
33645;DHT22;19986;48.190;16.366;2023-07-29T12:32:01;34.40;70.50
33645;DHT22;19986;48.190;16.366;2023-07-29T12:34:28;34.20;71.40
33645;DHT22;19986;48.190;16.366;2023-07-29T12:36:55;34.80;71.10
33645;DHT22;19986;48.190;16.366;2023-07-29T12:39:35;34.90;71.00
33645;DHT22;19986;48.190;16.366;2023-07-29T12:42:02;34.80;71.70
33645;DHT22;19986;48.190;16.366;2023-07-29T12:44:33;34.80;72.00
33645;DHT22;19986;48.190;16.366;2023-07-29T12:47:04;35.00;70.60
33645;DHT22;19986;48.190;16.366;2023-07-29T12:49:32;35.10;71.00
33645;DHT22;19986;48.190;16.366;2023-07-29T12:51:59;35.20;71.20
33645;DHT22;19986;48.190;16.366;2023-07-29T12:54:25;35.30;71.30
33645;DHT22;19986;48.190;16.366;2023-07-29T12:56:51;35.20;71.50
33645;DHT22;19986;48.190;16.366;2023-07-29T12:59:17;35.10;71.80
33645;DHT22;19986;48.190;16.366;2023-07-29T13:01:43;34.90;71.00
33645;DHT22;19986;48.190;16.366;2023-07-29T13:04:10;34.70;70.40
33645;DHT22;19986;48.190;16.366;2023-07-29T13:06:36;34.60;70.90
33645;DHT22;19986;48.190;16.366;2023-07-29T13:09:02;34.70;71.10
33645;DHT22;19986;48.190;16.366;2023-07-29T13:11:29;34.70;71.20
33645;DHT22;19986;48.190;16.366;2023-07-29T13:13:54;34.80;70.20
33645;DHT22;19986;48.190;16.366;2023-07-29T13:16:22;34.70;69.30
33645;DHT22;19986;48.190;16.366;2023-07-29T13:18:47;34.50;68.10
33645;DHT22;19986;48.190;16.366;2023-07-29T13:21:16;34.20;68.00
33645;DHT22;19986;48.190;16.366;2023-07-29T13:23:42;33.90;68.40
33645;DHT22;19986;48.190;16.366;2023-07-29T13:26:07;33.40;69.70
33645;DHT22;19986;48.190;16.366;2023-07-29T13:28:33;33.30;69.60
33645;DHT22;19986;48.190;16.366;2023-07-29T13:31:00;33.10;70.60
33645;DHT22;19986;48.190;16.366;2023-07-29T13:33:26;33.10;71.50
33645;DHT22;19986;48.190;16.366;2023-07-29T13:35:52;33.10;72.10
33645;DHT22;19986;48.190;16.366;2023-07-29T13:38:18;33.10;71.90
33645;DHT22;19986;48.190;16.366;2023-07-29T13:40:45;33.00;72.10
33645;DHT22;19986;48.190;16.366;2023-07-29T13:43:13;32.90;72.20
33645;DHT22;19986;48.190;16.366;2023-07-29T13:45:42;33.00;72.20
33645;DHT22;19986;48.190;16.366;2023-07-29T13:48:08;33.10;72.40
33645;DHT22;19986;48.190;16.366;2023-07-29T13:50:34;33.20;72.50
33645;DHT22;19986;48.190;16.366;2023-07-29T13:53:00;33.20;72.50
33645;DHT22;19986;48.190;16.366;2023-07-29T13:55:26;33.20;73.20
33645;DHT22;19986;48.190;16.366;2023-07-29T13:57:53;33.20;72.80
33645;DHT22;19986;48.190;16.366;2023-07-29T14:00:22;33.20;72.60
33645;DHT22;19986;48.190;16.366;2023-07-29T14:02:48;33.20;72.80
33645;DHT22;19986;48.190;16.366;2023-07-29T14:05:14;33.20;73.40
33645;DHT22;19986;48.190;16.366;2023-07-29T14:07:40;33.20;73.80
33645;DHT22;19986;48.190;16.366;2023-07-29T14:10:06;33.10;74.30
33645;DHT22;19986;48.190;16.366;2023-07-29T14:12:34;33.10;74.70
33645;DHT22;19986;48.190;16.366;2023-07-29T14:15:00;33.10;75.00
33645;DHT22;19986;48.190;16.366;2023-07-29T14:17:26;33.20;75.00
33645;DHT22;19986;48.190;16.366;2023-07-29T14:19:53;33.30;74.60
33645;DHT22;19986;48.190;16.366;2023-07-29T14:22:19;33.60;74.60
33645;DHT22;19986;48.190;16.366;2023-07-29T14:24:45;33.80;73.40
33645;DHT22;19986;48.190;16.366;2023-07-29T14:27:13;33.80;73.40
33645;DHT22;19986;48.190;16.366;2023-07-29T14:29:39;33.70;73.20
33645;DHT22;19986;48.190;16.366;2023-07-29T14:32:05;33.60;73.30
33645;DHT22;19986;48.190;16.366;2023-07-29T14:34:31;33.50;72.70
33645;DHT22;19986;48.190;16.366;2023-07-29T14:36:57;33.50;73.00
33645;DHT22;19986;48.190;16.366;2023-07-29T14:39:23;33.30;73.60
33645;DHT22;19986;48.190;16.366;2023-07-29T14:41:49;33.20;74.00
33645;DHT22;19986;48.190;16.366;2023-07-29T14:44:15;32.90;74.30
33645;DHT22;19986;48.190;16.366;2023-07-29T14:46:40;32.80;74.60
33645;DHT22;19986;48.190;16.366;2023-07-29T14:49:06;32.70;74.90
33645;DHT22;19986;48.190;16.366;2023-07-29T14:51:34;32.50;75.10
33645;DHT22;19986;48.190;16.366;2023-07-29T14:54:00;32.40;75.30
33645;DHT22;19986;48.190;16.366;2023-07-29T14:56:26;32.60;75.50
33645;DHT22;19986;48.190;16.366;2023-07-29T14:58:52;32.60;75.40
33645;DHT22;19986;48.190;16.366;2023-07-29T15:01:18;32.50;75.50
33645;DHT22;19986;48.190;16.366;2023-07-29T15:03:43;32.40;75.70
33645;DHT22;19986;48.190;16.366;2023-07-29T15:06:09;32.40;76.00
33645;DHT22;19986;48.190;16.366;2023-07-29T15:08:35;32.30;76.10
33645;DHT22;19986;48.190;16.366;2023-07-29T15:11:02;32.40;76.10
33645;DHT22;19986;48.190;16.366;2023-07-29T15:13:27;32.30;76.10
33645;DHT22;19986;48.190;16.366;2023-07-29T15:15:53;32.30;76.30
33645;DHT22;19986;48.190;16.366;2023-07-29T15:18:19;32.30;76.30
33645;DHT22;19986;48.190;16.366;2023-07-29T15:20:45;32.30;76.40